Time,TemperatureF,DewpointF,PressureIn,WindDirection,WindDirectionDegrees,WindSpeedMPH,WindSpeedGustMPH,Humidity,HourlyPrecipIn,Conditions,Clouds,dailyrainin,SolarRadiationWatts/m^2,SoftwareType,DateUTC
2013-06-17 00:12:00,65.0,42.0,-100.00,NW,324,9.0,14.0,43,0.00,,,0.00,0.000000,,2013-06-17 07:12:00,
2013-06-17 00:22:00,65.0,42.0,-100.00,NW,324,9.0,14.0,43,0.00,,,0.00,0.000000,,2013-06-17 07:22:00,
2013-06-17 00:33:00,65.0,42.0,-100.00,NW,324,9.0,14.0,43,0.00,,,0.00,0.000000,,2013-06-17 07:33:00,
2013-06-17 00:42:00,65.0,42.0,-100.00,NW,324,9.0,14.0,43,0.00,,,0.00,0.000000,,2013-06-17 07:42:00,
2013-06-17 01:11:00,62.0,45.0,-100.00,WSW,247,17.0,24.0,54,0.01,,,0.01,0.000000,,2013-06-17 08:11:00,
2013-06-17 01:22:00,62.0,45.0,-100.00,WSW,247,17.0,24.0,54,0.01,,,0.01,0.000000,,2013-06-17 08:22:00,
2013-06-17 01:33:00,62.0,45.0,-100.00,WSW,247,17.0,24.0,54,0.01,,,0.01,0.000000,,2013-06-17 08:33:00,
2013-06-17 01:43:00,62.0,45.0,-100.00,WSW,247,17.0,24.0,54,0.01,,,0.01,0.000000,,2013-06-17 08:43:00,
2013-06-17 02:11:00,59.0,48.0,-100.00,NNW,328,9.0,16.0,68,0.01,,,0.02,0.000000,,2013-06-17 09:11:00,
2013-06-17 02:22:00,59.0,48.0,-100.00,NNW,328,9.0,16.0,68,0.01,,,0.02,0.000000,,2013-06-17 09:22:00,
2013-06-17 02:34:00,59.0,48.0,-100.00,NNW,328,9.0,16.0,68,0.01,,,0.02,0.000000,,2013-06-17 09:34:00,
2013-06-17 02:43:00,59.0,48.0,-100.00,NNW,328,9.0,16.0,68,0.01,,,0.02,0.000000,,2013-06-17 09:43:00,
2013-06-17 03:12:00,57.0,48.0,-100.00,NNW,328,9.0,16.0,73,0.00,,,0.02,0.000000,,2013-06-17 10:12:00,
2013-06-17 03:22:00,57.0,48.0,-100.00,NNW,328,9.0,16.0,73,0.00,,,0.02,0.000000,,2013-06-17 10:22:00,
2013-06-17 03:33:00,57.0,48.0,-100.00,NNW,328,9.0,16.0,73,0.00,,,0.02,0.000000,,2013-06-17 10:33:00,
2013-06-17 03:42:00,57.0,48.0,-100.00,NNW,328,9.0,16.0,73,0.00,,,0.02,0.000000,,2013-06-17 10:42:00,
2013-06-17 04:12:00,56.0,47.0,-100.00,WNW,294,7.0,12.0,73,0.00,,,0.02,0.000000,,2013-06-17 11:12:00,
2013-06-17 04:23:00,56.0,47.0,-100.00,WNW,294,7.0,12.0,73,0.00,,,0.02,0.000000,,2013-06-17 11:23:00,
2013-06-17 04:33:00,56.0,47.0,-100.00,WNW,294,7.0,12.0,73,0.00,,,0.02,0.000000,,2013-06-17 11:33:00,
2013-06-17 04:43:00,56.0,47.0,-100.00,WNW,294,7.0,12.0,73,0.00,,,0.02,0.000000,,2013-06-17 11:43:00,
2013-06-17 05:11:00,55.0,48.0,-100.00,NW,326,5.0,11.0,78,0.00,,,0.02,0.000000,,2013-06-17 12:11:00,
2013-06-17 05:22:00,55.0,48.0,-100.00,NW,326,5.0,11.0,78,0.00,,,0.02,0.000000,,2013-06-17 12:22:00,
2013-06-17 05:33:00,55.0,48.0,-100.00,NW,326,5.0,11.0,78,0.00,,,0.02,0.000000,,2013-06-17 12:33:00,
2013-06-17 05:43:00,55.0,48.0,-100.00,NW,326,5.0,11.0,78,0.00,,,0.02,0.000000,,2013-06-17 12:43:00,
2013-06-17 06:11:00,53.0,47.0,-100.00,North,356,6.0,8.0,79,0.00,,,-99.99,0.000000,,2013-06-17 13:11:00,
2013-06-17 06:22:00,53.0,47.0,-100.00,North,356,6.0,8.0,79,0.00,,,-99.99,0.000000,,2013-06-17 13:22:00,
2013-06-17 06:32:00,53.0,47.0,-100.00,North,356,6.0,8.0,79,0.00,,,-99.99,0.000000,,2013-06-17 13:32:00,
2013-06-17 06:43:00,53.0,47.0,-100.00,North,356,6.0,8.0,79,0.00,,,-99.99,0.000000,,2013-06-17 13:43:00,
2013-06-17 07:11:00,57.0,50.0,-100.00,NW,306,1.0,7.0,78,0.00,,,0.02,0.000000,,2013-06-17 14:11:00,
2013-06-17 07:22:00,57.0,50.0,-100.00,NW,306,1.0,7.0,78,0.00,,,0.02,0.000000,,2013-06-17 14:22:00,
2013-06-17 07:34:00,57.0,50.0,-100.00,NW,306,1.0,7.0,78,0.00,,,0.02,0.000000,,2013-06-17 14:34:00,
2013-06-17 07:43:00,57.0,50.0,-100.00,NW,306,1.0,7.0,78,0.00,,,0.02,0.000000,,2013-06-17 14:43:00,
2013-06-17 08:12:00,63.0,51.0,-100.00,WNW,302,1.0,5.0,65,0.00,,,0.02,23.000000,,2013-06-17 15:12:00,
2013-06-17 08:22:00,63.0,51.0,-100.00,WNW,302,1.0,5.0,65,0.00,,,0.02,23.000000,,2013-06-17 15:22:00,
2013-06-17 08:33:00,63.0,51.0,-100.00,WNW,302,1.0,5.0,65,0.00,,,0.02,23.000000,,2013-06-17 15:33:00,
2013-06-17 08:43:00,63.0,51.0,-100.00,WNW,302,1.0,5.0,65,0.00,,,0.02,23.000000,,2013-06-17 15:43:00,
2013-06-17 09:11:00,69.0,49.0,-100.00,North,352,2.0,6.0,49,0.00,,,0.02,340.000000,,2013-06-17 16:11:00,
2013-06-17 09:22:00,69.0,49.0,-100.00,North,352,2.0,6.0,49,0.00,,,0.02,340.000000,,2013-06-17 16:22:00,
2013-06-17 09:33:00,69.0,49.0,-100.00,North,352,2.0,6.0,49,0.00,,,0.02,340.000000,,2013-06-17 16:33:00,
2013-06-17 09:43:00,69.0,49.0,-100.00,North,352,2.0,6.0,49,0.00,,,0.02,340.000000,,2013-06-17 16:43:00,
2013-06-17 10:12:00,74.0,49.0,-100.00,SE,143,3.0,9.0,41,0.00,,,0.02,487.000000,,2013-06-17 17:12:00,
2013-06-17 10:33:00,74.0,49.0,-100.00,SE,143,3.0,9.0,41,0.00,,,0.02,487.000000,,2013-06-17 17:33:00,
2013-06-17 10:43:00,74.0,49.0,-100.00,SE,143,3.0,9.0,41,0.00,,,0.02,487.000000,,2013-06-17 17:43:00,
2013-06-17 11:12:00,74.0,46.0,-100.00,SSE,151,7.0,15.0,37,0.00,,,0.02,709.000000,,2013-06-17 18:12:00,
2013-06-17 11:23:00,74.0,46.0,-100.00,SSE,151,7.0,15.0,37,0.00,,,0.02,709.000000,,2013-06-17 18:23:00,
2013-06-17 11:33:00,74.0,46.0,-100.00,SSE,151,7.0,15.0,37,0.00,,,0.02,709.000000,,2013-06-17 18:33:00,
2013-06-17 11:42:00,74.0,46.0,-100.00,SSE,151,7.0,15.0,37,0.00,,,0.02,709.000000,,2013-06-17 18:42:00,
2013-06-17 12:11:00,76.0,46.0,-100.00,SSE,149,8.0,18.0,35,0.00,,,0.02,589.000000,,2013-06-17 19:11:00,
2013-06-17 12:22:00,76.0,46.0,-100.00,SSE,149,8.0,18.0,35,0.00,,,0.02,589.000000,,2013-06-17 19:22:00,
2013-06-17 12:33:00,76.0,46.0,-100.00,SSE,149,8.0,18.0,35,0.00,,,0.02,589.000000,,2013-06-17 19:33:00,
2013-06-17 12:43:00,76.0,46.0,-100.00,SSE,149,8.0,18.0,35,0.00,,,0.02,589.000000,,2013-06-17 19:43:00,
2013-06-17 13:11:00,75.0,40.0,-100.00,SSW,206,8.0,18.0,28,0.00,,,0.02,585.000000,,2013-06-17 20:11:00,
2013-06-17 13:22:00,75.0,40.0,-100.00,SSW,206,8.0,18.0,28,0.00,,,0.02,585.000000,,2013-06-17 20:22:00,
2013-06-17 13:34:00,75.0,40.0,-100.00,SSW,206,8.0,18.0,28,0.00,,,0.02,585.000000,,2013-06-17 20:34:00,
2013-06-17 13:43:00,75.0,40.0,-100.00,SSW,206,8.0,18.0,28,0.00,,,0.02,585.000000,,2013-06-17 20:43:00,
2013-06-17 16:11:00,79.0,38.0,-100.00,South,171,16.0,28.0,23,0.00,,,-99.99,618.000000,,2013-06-17 23:11:00,
2013-06-17 16:22:00,79.0,38.0,-100.00,South,171,16.0,28.0,23,0.00,,,-99.99,618.000000,,2013-06-17 23:22:00,
2013-06-17 16:32:00,79.0,38.0,-100.00,South,171,16.0,28.0,23,0.00,,,-99.99,618.000000,,2013-06-17 23:32:00,
2013-06-17 16:42:00,79.0,38.0,-100.00,South,171,16.0,28.0,23,0.00,,,-99.99,618.000000,,2013-06-17 23:42:00,
2013-06-17 17:12:00,80.0,39.0,-100.00,SSW,198,14.0,28.0,23,0.00,,,0.02,448.000000,,2013-06-18 00:12:00,
2013-06-17 17:22:00,80.0,39.0,-100.00,SSW,198,14.0,28.0,23,0.00,,,0.02,448.000000,,2013-06-18 00:22:00,
2013-06-17 17:32:00,80.0,39.0,-100.00,SSW,198,14.0,28.0,23,0.00,,,0.02,448.000000,,2013-06-18 00:32:00,
2013-06-17 17:43:00,80.0,39.0,-100.00,SSW,198,14.0,28.0,23,0.00,,,0.02,448.000000,,2013-06-18 00:43:00,
2013-06-17 18:11:00,78.0,38.0,-100.00,West,267,11.0,38.0,24,0.00,,,0.02,442.000000,,2013-06-18 01:11:00,
2013-06-17 18:23:00,78.0,38.0,-100.00,West,267,11.0,38.0,24,0.00,,,0.02,442.000000,,2013-06-18 01:23:00,
2013-06-17 18:33:00,78.0,38.0,-100.00,West,267,11.0,38.0,24,0.00,,,0.02,442.000000,,2013-06-18 01:33:00,
2013-06-17 18:44:00,78.0,38.0,-100.00,West,267,11.0,38.0,24,0.00,,,0.02,442.000000,,2013-06-18 01:44:00,
2013-06-17 19:11:00,77.0,38.0,-100.00,WNW,293,10.0,18.0,25,0.00,,,0.02,113.000000,,2013-06-18 02:11:00,
2013-06-17 19:22:00,77.0,38.0,-100.00,WNW,293,10.0,18.0,25,0.00,,,0.02,113.000000,,2013-06-18 02:22:00,
2013-06-17 19:34:00,77.0,38.0,-100.00,WNW,293,10.0,18.0,25,0.00,,,0.02,113.000000,,2013-06-18 02:34:00,
2013-06-17 19:43:00,77.0,38.0,-100.00,WNW,293,10.0,18.0,25,0.00,,,0.02,113.000000,,2013-06-18 02:43:00,
2013-06-17 20:12:00,74.0,39.0,-100.00,WNW,296,6.0,15.0,28,0.00,,,0.02,18.000000,,2013-06-18 03:12:00,
2013-06-17 20:23:00,74.0,39.0,-100.00,WNW,296,6.0,15.0,28,0.00,,,0.02,18.000000,,2013-06-18 03:23:00,
2013-06-17 20:33:00,74.0,39.0,-100.00,WNW,296,6.0,15.0,28,0.00,,,0.02,18.000000,,2013-06-18 03:33:00,
2013-06-17 20:42:00,74.0,39.0,-100.00,WNW,296,6.0,15.0,28,0.00,,,0.02,18.000000,,2013-06-18 03:42:00,
2013-06-17 21:12:00,70.0,36.0,-100.00,SW,235,10.0,20.0,29,0.00,,,0.02,0.000000,,2013-06-18 04:12:00,
2013-06-17 21:22:00,70.0,36.0,-100.00,SW,235,10.0,20.0,29,0.00,,,0.02,0.000000,,2013-06-18 04:22:00,
2013-06-17 21:34:00,70.0,36.0,-100.00,SW,235,10.0,20.0,29,0.00,,,0.02,0.000000,,2013-06-18 04:34:00,
2013-06-17 21:43:00,70.0,36.0,-100.00,SW,235,10.0,20.0,29,0.00,,,0.02,0.000000,,2013-06-18 04:43:00,
2013-06-17 22:12:00,65.0,43.0,-100.00,WNW,283,4.0,25.0,45,0.00,,,0.02,0.000000,,2013-06-18 05:12:00,
2013-06-17 22:22:00,65.0,43.0,-100.00,WNW,283,4.0,25.0,45,0.00,,,0.02,0.000000,,2013-06-18 05:22:00,
2013-06-17 22:33:00,65.0,43.0,-100.00,WNW,283,4.0,25.0,45,0.00,,,0.02,0.000000,,2013-06-18 05:33:00,
2013-06-17 22:43:00,65.0,43.0,-100.00,WNW,283,4.0,25.0,45,0.00,,,0.02,0.000000,,2013-06-18 05:43:00,
2013-06-17 23:11:00,63.0,43.0,-100.00,South,181,5.0,12.0,48,0.00,,,0.02,0.000000,,2013-06-18 06:11:00,
2013-06-17 23:23:00,63.0,43.0,-100.00,South,181,5.0,12.0,48,0.00,,,0.02,0.000000,,2013-06-18 06:23:00,
2013-06-17 23:32:00,63.0,43.0,-100.00,South,181,5.0,12.0,48,0.00,,,0.02,0.000000,,2013-06-18 06:32:00,
2013-06-17 23:43:00,63.0,43.0,-100.00,South,181,5.0,12.0,48,0.00,,,0.02,0.000000,,2013-06-18 06:43:00,